KDMA/DMA METAR and TAF weather

Enter ICAO airport designator
Station Type Date Time Source
KDMA METAR 2018/10/21 04:58 UTC NOAA

KDMA 210458Z AUTO 12024G33KT 10SM CLR 23/10 A3002 RMK AO2 PK WND 11033/47 SLP128 T02330100 VISNO RWY12 CHINO RWY12 $


Station Type Date Time Source
KDMA Decoded METAR 2018/10/21 04:58 UTC NOAA

Davis-Monthan Air Force Base, AZ, United States (KDMA) 32-10N 110-53W
Oct 21, 2018 - 12:58 AM EDT / 2018.10.21 0458 UTC
Wind: from the ESE (120 degrees) at 28 MPH (24 KT) gusting to 38 MPH (33 KT):0
Visibility: 10 mile(s):0
Sky conditions: clear
Temperature: 73.9 F (23.3 C)
Dew Point: 50.0 F (10.0 C)
Relative Humidity: 42%
Pressure (altimeter): 30.02 in. Hg (1016 hPa)
ob: KDMA 210458Z AUTO 12024G33KT 10SM CLR 23/10 A3002 RMK AO2 PK WND 11033/47 SLP128 T02330100 VISNO RWY12 CHINO RWY12
cycle: 5

Station Type Date Time Source
KDMA TAF 2018/10/21 04:39 UTC NOAA

TAF TAF KDMA 210422Z 2104/2204 10012G20KT 9999 FEW060 SCT080 QNH3003INS
TEMPO 2104/2107 12025G35KT 520009
BECMG 2111/2112 10012G18KT 9999 SCT060 QNH3004INS
BECMG 2116/2117 12015G25KT 9999 VCSH SCT060 QNH2999INS
TEMPO 2118/2120 12020G30KT 8000 -SHRA BKN060 520009
BECMG 2120/2121 11010G15KT 9999 NSW SCT070 QNH2996INS
BECMG 2201/2202 10012KT 8000 -SHRA BKN060 QNH2999INS TX24/2104Z TN15/2112Z


Example: see airport list